Time;durP1;ratioP1;P1;durP2;ratioP2;P2;SDS_P1;SDS_P2;PMS_P1;PMS_P2;Temp;Humidity;BMP_temperature;BMP_pressure;BME280_temperature;BME280_humidity;BME280_pressure;Samples;Min_cycle;Max_cycle;Signal;HPM_P1;HPM_P2
2022/12/17 13:06:13;;;;;;;10.35;5.07;;;;;;;;;;5034137;28;20136;-89
2022/12/17 13:08:40;;;;;;;8.73;5.10;;;;;;;;;;5049677;28;20059;-89
2022/12/17 13:11:12;;;;;;;14.85;5.38;;;;;;;;;;5033940;28;20052;-89
2022/12/17 13:13:54;;;;;;;15.38;5.32;;;;;;;;;;5049793;28;20053;-90
2022/12/17 13:16:32;;;;;;;9.90;4.30;;;;;;;;;;5051992;28;20081;-89
2022/12/17 13:19:18;;;;;;;9.50;4.30;;;;;;;;;;5049188;28;20585;-89
2022/12/17 13:21:45;;;;;;;13.23;5.00;;;;;;;;;;5050430;28;20055;-89
2022/12/17 13:24:22;;;;;;;12.45;5.63;;;;;;;;;;5050288;28;20045;-90
2022/12/17 13:26:49;;;;;;;20.77;6.00;;;;;;;;;;5049524;28;20060;-89
2022/12/17 13:29:21;;;;;;;17.00;5.95;;;;;;;;;;5048941;28;20061;-89
2022/12/17 13:31:58;;;;;;;12.75;5.22;;;;;;;;;;5049343;28;20404;-89
2022/12/17 13:34:46;;;;;;;7.95;5.63;;;;;;;;;;5049148;28;20045;-89
2022/12/17 13:37:28;;;;;;;13.75;5.20;;;;;;;;;;5049418;28;20052;-89
2022/12/17 13:40:03;;;;;;;21.57;9.83;;;;;;;;;;5049203;28;20064;-89
2022/12/17 13:42:31;;;;;;;18.73;9.13;;;;;;;;;;5048895;28;20054;-89
2022/12/17 13:44:59;;;;;;;17.15;9.27;;;;;;;;;;5049225;28;20045;-89
2022/12/17 13:47:29;;;;;;;16.05;9.35;;;;;;;;;;5049127;28;20053;-89
2022/12/17 13:49:58;;;;;;;21.50;10.88;;;;;;;;;;5049035;28;20054;-89
2022/12/17 13:52:45;;;;;;;25.35;12.40;;;;;;;;;;5046585;28;20053;-88
2022/12/17 13:55:39;;;;;;;28.50;12.20;;;;;;;;;;5049203;28;20382;-89
2022/12/17 13:58:19;;;;;;;63.13;20.02;;;;;;;;;;5031159;28;20103;-89
2022/12/17 14:00:47;;;;;;;49.22;18.45;;;;;;;;;;5050308;28;20053;-89
2022/12/17 14:03:17;;;;;;;33.60;15.90;;;;;;;;;;5054375;28;20096;-87
2022/12/17 14:05:58;;;;;;;21.73;11.77;;;;;;;;;;5062136;28;20050;-89
2022/12/17 14:08:28;;;;;;;22.38;11.18;;;;;;;;;;5049349;28;20148;-89
2022/12/17 14:12:20;;;;;;;21.60;11.00;;;;;;;;;;5048965;28;20054;-88
2022/12/17 14:13:44;;;;;;;15.88;8.00;;;;;;;;;;5033585;28;20060;-89
2022/12/17 14:16:15;;;;;;;14.95;7.70;;;;;;;;;;5052695;28;20061;-89
2022/12/17 14:18:44;;;;;;;14.43;7.63;;;;;;;;;;5053169;28;20297;-88
2022/12/17 14:21:12;;;;;;;13.20;6.95;;;;;;;;;;5052166;28;20136;-88
2022/12/17 14:23:40;;;;;;;12.00;6.70;;;;;;;;;;5052178;28;20053;-89
2022/12/17 14:26:11;;;;;;;13.35;7.03;;;;;;;;;;5052281;28;20469;-88
2022/12/17 14:28:45;;;;;;;13.13;6.88;;;;;;;;;;5053241;28;20050;-88
2022/12/17 14:31:24;;;;;;;11.98;7.07;;;;;;;;;;5052991;28;20056;-88
2022/12/17 14:34:19;;;;;;;12.45;6.57;;;;;;;;;;5055544;28;20076;-88
2022/12/17 14:36:52;;;;;;;10.30;6.60;;;;;;;;;;5033484;28;20482;-89
2022/12/17 14:39:25;;;;;;;13.73;7.63;;;;;;;;;;5051694;28;20057;-89
2022/12/17 14:44:49;;;;;;;16.55;8.32;;;;;;;;;;5036533;28;20546;-89
2022/12/17 14:47:16;;;;;;;23.83;11.88;;;;;;;;;;5052551;28;20113;-88
2022/12/17 14:49:53;;;;;;;25.40;14.30;;;;;;;;;;5052579;28;20501;-89
2022/12/17 14:52:27;;;;;;;26.55;14.90;;;;;;;;;;5051561;28;20447;-88
2022/12/17 14:54:54;;;;;;;27.98;15.57;;;;;;;;;;5051305;28;20140;-88
2022/12/17 14:57:22;;;;;;;25.20;14.75;;;;;;;;;;5051766;28;20056;-89
2022/12/17 14:59:51;;;;;;;22.75;14.43;;;;;;;;;;5035828;28;20057;-88
2022/12/17 15:02:26;;;;;;;25.75;12.35;;;;;;;;;;5051634;28;20060;-88
2022/12/17 15:05:00;;;;;;;20.45;12.20;;;;;;;;;;5051133;28;20041;-88
2022/12/17 15:07:30;;;;;;;20.55;11.35;;;;;;;;;;5051785;28;20088;-89
2022/12/17 15:10:00;;;;;;;18.25;9.07;;;;;;;;;;5051411;28;20052;-88
2022/12/17 15:12:28;;;;;;;14.45;8.02;;;;;;;;;;5051775;28;20054;-89
2022/12/17 15:14:55;;;;;;;15.25;8.20;;;;;;;;;;5052959;28;20042;-88
2022/12/17 15:17:22;;;;;;;11.40;7.30;;;;;;;;;;5063010;28;20043;-88
2022/12/17 15:19:49;;;;;;;14.25;7.60;;;;;;;;;;5072929;28;20063;-88
2022/12/17 15:22:22;;;;;;;14.10;7.55;;;;;;;;;;5051721;28;20072;-88
2022/12/17 15:24:50;;;;;;;15.60;7.85;;;;;;;;;;5051195;28;20045;-88
2022/12/17 15:27:17;;;;;;;17.55;7.82;;;;;;;;;;5050313;28;20404;-88
2022/12/17 15:29:46;;;;;;;16.58;8.45;;;;;;;;;;5050774;28;20091;-88
2022/12/17 15:32:18;;;;;;;15.20;9.10;;;;;;;;;;5050888;28;20045;-88
2022/12/17 15:34:46;;;;;;;14.20;9.03;;;;;;;;;;5050721;28;20056;-88
2022/12/17 15:37:14;;;;;;;17.25;9.82;;;;;;;;;;5050126;28;20061;-88
2022/12/17 15:39:41;;;;;;;17.80;9.18;;;;;;;;;;5049932;28;20056;-88
2022/12/17 15:44:54;;;;;;;22.13;11.30;;;;;;;;;;5034252;28;20051;-88
2022/12/17 15:47:21;;;;;;;28.58;14.15;;;;;;;;;;5049378;28;20509;-88
2022/12/17 15:49:49;;;;;;;48.42;20.73;;;;;;;;;;5048124;28;20049;-88
2022/12/17 15:52:16;;;;;;;49.55;20.05;;;;;;;;;;5049730;28;20064;-88
2022/12/17 15:54:44;;;;;;;38.30;17.58;;;;;;;;;;5049828;28;20053;-88
2022/12/17 15:57:11;;;;;;;33.78;16.45;;;;;;;;;;5049587;28;20050;-88
2022/12/17 15:59:44;;;;;;;30.10;16.00;;;;;;;;;;5048260;28;20041;-87
2022/12/17 16:02:12;;;;;;;28.90;15.13;;;;;;;;;;5049626;28;20049;-88
2022/12/17 16:04:39;;;;;;;33.63;14.55;;;;;;;;;;5049397;28;20099;-86
2022/12/17 16:07:07;;;;;;;29.40;14.13;;;;;;;;;;5049692;28;20053;-86
2022/12/17 16:09:34;;;;;;;24.58;13.73;;;;;;;;;;5049557;28;20049;-90
2022/12/17 16:12:02;;;;;;;26.17;12.75;;;;;;;;;;5049091;28;20140;-88
2022/12/17 16:14:29;;;;;;;20.23;10.70;;;;;;;;;;5049365;28;20041;-89
2022/12/17 16:16:56;;;;;;;18.20;10.02;;;;;;;;;;5033475;28;20053;-88
2022/12/17 16:19:23;;;;;;;19.38;9.93;;;;;;;;;;5048721;28;20049;-88
2022/12/17 16:21:50;;;;;;;18.40;10.05;;;;;;;;;;5049211;28;20061;-86
2022/12/17 16:24:19;;;;;;;21.42;10.20;;;;;;;;;;5049169;28;20077;-87
2022/12/17 16:26:46;;;;;;;18.83;10.07;;;;;;;;;;5049273;28;20136;-87
2022/12/17 16:29:14;;;;;;;23.27;12.23;;;;;;;;;;5049111;28;20057;-87
2022/12/17 16:31:41;;;;;;;21.25;11.43;;;;;;;;;;5049675;28;20050;-87
2022/12/17 16:34:09;;;;;;;26.45;10.98;;;;;;;;;;5049138;28;20053;-86
2022/12/17 16:36:36;;;;;;;21.17;10.95;;;;;;;;;;5048979;28;20049;-87
2022/12/17 16:39:04;;;;;;;16.40;9.57;;;;;;;;;;5047893;28;20049;-86
2022/12/17 16:41:32;;;;;;;17.92;10.35;;;;;;;;;;5049168;28;20050;-90
2022/12/17 16:43:59;;;;;;;21.98;9.90;;;;;;;;;;5048929;28;20069;-87
2022/12/17 16:46:28;;;;;;;23.70;10.85;;;;;;;;;;5048796;28;20547;-86
2022/12/17 16:48:56;;;;;;;24.15;11.30;;;;;;;;;;5048739;28;20049;-86
2022/12/17 16:51:25;;;;;;;40.70;19.00;;;;;;;;;;5048017;28;20049;-86
2022/12/17 16:53:56;;;;;;;30.98;15.38;;;;;;;;;;5047986;28;20067;-86
2022/12/17 16:56:24;;;;;;;23.67;12.20;;;;;;;;;;5048412;28;20068;-87
2022/12/17 16:58:51;;;;;;;18.77;10.23;;;;;;;;;;5048898;28;20087;-86
2022/12/17 17:01:20;;;;;;;18.88;11.38;;;;;;;;;;5048371;28;20136;-87
2022/12/17 17:03:47;;;;;;;22.25;11.45;;;;;;;;;;5048668;28;20061;-86
2022/12/17 17:06:16;;;;;;;21.80;11.23;;;;;;;;;;5048341;28;20123;-87
2022/12/17 17:08:43;;;;;;;22.42;11.45;;;;;;;;;;5048324;28;20518;-87
2022/12/17 17:11:18;;;;;;;23.25;11.18;;;;;;;;;;5048609;28;20045;-87
2022/12/17 17:13:45;;;;;;;20.88;11.25;;;;;;;;;;5048521;28;20051;-86
2022/12/17 17:16:12;;;;;;;27.05;12.45;;;;;;;;;;5051051;28;20053;-86
2022/12/17 17:18:40;;;;;;;30.35;12.23;;;;;;;;;;5048399;28;20049;-87
2022/12/17 17:21:22;;;;;;;19.38;11.38;;;;;;;;;;5048297;28;20067;-87
2022/12/17 17:23:52;;;;;;;21.58;10.50;;;;;;;;;;5048753;28;20155;-87
2022/12/17 17:26:23;;;;;;;23.23;11.75;;;;;;;;;;5048866;28;20046;-88
2022/12/17 17:28:50;;;;;;;24.83;11.57;;;;;;;;;;5049512;28;20057;-87
2022/12/17 17:31:18;;;;;;;29.05;13.20;;;;;;;;;;5048884;28;20048;-86
2022/12/17 17:33:49;;;;;;;27.88;14.73;;;;;;;;;;5048721;28;20054;-88
2022/12/17 17:36:16;;;;;;;34.17;15.32;;;;;;;;;;5048927;28;20397;-86
2022/12/17 17:38:43;;;;;;;33.10;15.32;;;;;;;;;;5048327;28;20050;-86
2022/12/17 17:41:12;;;;;;;33.72;16.05;;;;;;;;;;5048056;28;20042;-87
2022/12/17 17:43:39;;;;;;;29.58;15.13;;;;;;;;;;5047695;28;20060;-87
2022/12/17 17:46:08;;;;;;;37.25;17.42;;;;;;;;;;5048028;28;20556;-86
2022/12/17 17:48:35;;;;;;;41.58;18.60;;;;;;;;;;5047317;28;20093;-87
2022/12/17 17:51:07;;;;;;;38.55;18.35;;;;;;;;;;5051932;28;20056;-86
2022/12/17 17:53:35;;;;;;;41.90;18.10;;;;;;;;;;5051968;28;20051;-86
2022/12/17 17:56:04;;;;;;;44.63;18.38;;;;;;;;;;5051628;28;20061;-87
2022/12/17 17:58:31;;;;;;;40.28;17.52;;;;;;;;;;5051995;28;20049;-86
2022/12/17 18:00:59;;;;;;;38.58;18.02;;;;;;;;;;5052323;28;20059;-87
2022/12/17 18:03:28;;;;;;;43.22;19.40;;;;;;;;;;5051584;28;20060;-87
2022/12/17 18:06:00;;;;;;;41.55;18.48;;;;;;;;;;5052277;28;20056;-86
2022/12/17 18:08:31;;;;;;;40.77;19.13;;;;;;;;;;5052818;28;20056;-87
2022/12/17 18:10:59;;;;;;;42.72;21.42;;;;;;;;;;5052344;28;20054;-87
2022/12/17 18:16:13;;;;;;;46.15;19.42;;;;;;;;;;5037006;28;20076;-87
2022/12/17 18:18:41;;;;;;;45.92;21.33;;;;;;;;;;5052753;28;20046;-87
2022/12/17 18:21:12;;;;;;;63.72;24.95;;;;;;;;;;5036266;28;20046;-86
2022/12/17 18:23:39;;;;;;;56.85;23.15;;;;;;;;;;5053068;28;20076;-87
2022/12/17 18:26:15;;;;;;;48.92;20.02;;;;;;;;;;5056684;28;20049;-86
2022/12/17 18:28:43;;;;;;;44.20;19.30;;;;;;;;;;5056484;28;20049;-86
2022/12/17 18:31:12;;;;;;;42.42;18.80;;;;;;;;;;5053059;28;20049;-87
2022/12/17 18:33:41;;;;;;;34.78;17.52;;;;;;;;;;5052013;28;20132;-87
2022/12/17 18:36:09;;;;;;;36.50;17.08;;;;;;;;;;5051089;28;20063;-87
2022/12/17 18:38:37;;;;;;;31.17;16.00;;;;;;;;;;5052410;28;20052;-87
2022/12/17 18:44:03;;;;;;;30.40;14.27;;;;;;;;;;5036597;28;20056;-87
2022/12/17 18:46:31;;;;;;;28.75;13.15;;;;;;;;;;5050483;28;20132;-87
2022/12/17 18:49:00;;;;;;;29.13;13.20;;;;;;;;;;5051324;28;20057;-86
2022/12/17 18:51:27;;;;;;;28.73;13.05;;;;;;;;;;5050836;28;20080;-86
2022/12/17 18:53:58;;;;;;;33.40;14.00;;;;;;;;;;5051202;28;20041;-86
2022/12/17 18:56:26;;;;;;;31.38;14.55;;;;;;;;;;5050578;28;20057;-85
2022/12/17 18:59:14;;;;;;;34.42;14.32;;;;;;;;;;5048138;28;20136;-86
2022/12/17 19:01:42;;;;;;;36.03;16.10;;;;;;;;;;5049437;28;20049;-86
2022/12/17 19:04:12;;;;;;;35.30;17.08;;;;;;;;;;5049456;28;20435;-86
2022/12/17 19:06:41;;;;;;;49.45;19.75;;;;;;;;;;5054200;28;20481;-86
2022/12/17 19:09:16;;;;;;;43.17;19.75;;;;;;;;;;5051915;28;20099;-86
2022/12/17 19:11:43;;;;;;;39.20;19.10;;;;;;;;;;5051809;28;20049;-85
2022/12/17 19:14:10;;;;;;;41.17;17.98;;;;;;;;;;5051400;28;20049;-86
2022/12/17 19:16:37;;;;;;;35.55;17.38;;;;;;;;;;5050876;28;20050;-85
2022/12/17 19:19:05;;;;;;;38.17;18.58;;;;;;;;;;5051180;28;20076;-85
2022/12/17 19:21:33;;;;;;;39.35;16.90;;;;;;;;;;5050956;28;20049;-85
2022/12/17 19:24:04;;;;;;;30.52;16.00;;;;;;;;;;5050511;28;20057;-84
2022/12/17 19:26:32;;;;;;;28.02;14.23;;;;;;;;;;5051542;28;20052;-86
2022/12/17 19:29:14;;;;;;;;;;;;;;;;;;;;;
2022/12/17 19:31:59;;;;;;;35.78;15.13;;;;;;;;;;5015981;28;20050;-87
2022/12/17 19:34:26;;;;;;;29.50;13.90;;;;;;;;;;5051438;28;20049;-87
2022/12/17 19:36:53;;;;;;;32.03;14.75;;;;;;;;;;5051334;28;20057;-85
2022/12/17 19:39:21;;;;;;;30.58;14.13;;;;;;;;;;5051844;28;20083;-87
2022/12/17 19:41:49;;;;;;;37.08;16.20;;;;;;;;;;5051177;28;20056;-86
2022/12/17 19:44:16;;;;;;;44.85;18.48;;;;;;;;;;5050698;28;20436;-86
2022/12/17 19:46:44;;;;;;;41.53;19.02;;;;;;;;;;5051097;28;20401;-86
2022/12/17 19:49:12;;;;;;;46.28;20.35;;;;;;;;;;5050669;28;20049;-86
2022/12/17 19:51:41;;;;;;;36.85;16.90;;;;;;;;;;5050912;28;20056;-87
2022/12/17 19:54:11;;;;;;;36.08;17.40;;;;;;;;;;5050779;28;20140;-86
2022/12/17 19:56:38;;;;;;;44.38;19.63;;;;;;;;;;5050986;28;20053;-87
2022/12/17 19:59:06;;;;;;;36.35;16.80;;;;;;;;;;5050940;28;20049;-86
2022/12/17 20:01:35;;;;;;;36.47;17.45;;;;;;;;;;5051439;28;20570;-86
2022/12/17 20:04:06;;;;;;;36.28;16.85;;;;;;;;;;5050820;28;20065;-87
2022/12/17 20:06:34;;;;;;;34.80;15.68;;;;;;;;;;5056714;28;20049;-87
2022/12/17 20:09:03;;;;;;;35.28;16.23;;;;;;;;;;5064986;28;20136;-86
2022/12/17 20:11:33;;;;;;;27.77;13.48;;;;;;;;;;5051383;28;20056;-87
2022/12/17 20:14:07;;;;;;;28.67;13.25;;;;;;;;;;5050256;28;20045;-87
2022/12/17 20:16:41;;;;;;;24.98;12.13;;;;;;;;;;5050710;28;20054;-86
2022/12/17 20:19:10;;;;;;;21.48;10.77;;;;;;;;;;5050383;28;20050;-86
2022/12/17 20:21:38;;;;;;;22.88;10.48;;;;;;;;;;5051851;28;20477;-86
2022/12/17 20:24:05;;;;;;;22.90;11.32;;;;;;;;;;5050476;28;20579;-86
2022/12/17 20:26:33;;;;;;;22.88;11.48;;;;;;;;;;5050602;28;20053;-86
2022/12/17 20:29:00;;;;;;;25.38;11.85;;;;;;;;;;5050667;28;20057;-86
2022/12/17 20:31:27;;;;;;;23.13;11.10;;;;;;;;;;5049770;28;20413;-87
2022/12/17 20:33:55;;;;;;;30.60;12.27;;;;;;;;;;5049950;28;20054;-87
2022/12/17 20:36:22;;;;;;;33.60;14.93;;;;;;;;;;5051407;28;20137;-87
2022/12/17 20:38:49;;;;;;;59.13;21.02;;;;;;;;;;5050237;28;20049;-86
2022/12/17 20:41:18;;;;;;;76.88;29.00;;;;;;;;;;5050172;28;20056;-87
2022/12/17 20:43:47;;;;;;;84.38;29.38;;;;;;;;;;5034596;28;20055;-87
2022/12/17 20:46:14;;;;;;;68.82;24.38;;;;;;;;;;5049962;28;20053;-86
2022/12/17 20:48:42;;;;;;;88.63;29.00;;;;;;;;;;5049870;28;20084;-86
2022/12/17 20:51:15;;;;;;;85.38;28.88;;;;;;;;;;5049813;28;20046;-86
2022/12/17 20:53:43;;;;;;;66.63;24.27;;;;;;;;;;5050097;28;20063;-87
2022/12/17 20:56:11;;;;;;;76.65;26.45;;;;;;;;;;5049778;28;20049;-86
2022/12/17 20:58:39;;;;;;;48.63;18.27;;;;;;;;;;5050327;28;20055;-87
2022/12/17 21:01:08;;;;;;;29.70;12.63;;;;;;;;;;5034927;28;20041;-86
2022/12/17 21:03:36;;;;;;;32.13;14.38;;;;;;;;;;5049644;28;20137;-87
2022/12/17 21:06:06;;;;;;;48.40;17.20;;;;;;;;;;5047976;28;20506;-87
2022/12/17 21:08:33;;;;;;;35.95;15.52;;;;;;;;;;5049272;28;20073;-87
2022/12/17 21:11:00;;;;;;;23.77;12.70;;;;;;;;;;5048835;28;20056;-86
2022/12/17 21:13:27;;;;;;;21.20;11.07;;;;;;;;;;5049177;28;20060;-86
2022/12/17 21:15:55;;;;;;;19.73;10.95;;;;;;;;;;5048689;28;20053;-87
2022/12/17 21:18:23;;;;;;;22.13;10.00;;;;;;;;;;5048667;28;20045;-87
2022/12/17 21:20:57;;;;;;;22.15;10.32;;;;;;;;;;5060175;28;20124;-87
2022/12/17 21:23:24;;;;;;;28.60;12.52;;;;;;;;;;5058263;28;20045;-87
2022/12/17 21:26:04;;;;;;;28.45;14.07;;;;;;;;;;5051421;28;20053;-87
2022/12/17 21:28:37;;;;;;;28.48;12.73;;;;;;;;;;5052479;28;20122;-87
2022/12/17 21:31:05;;;;;;;30.65;13.73;;;;;;;;;;5052959;28;20064;-87
2022/12/17 21:33:33;;;;;;;28.15;12.35;;;;;;;;;;5057473;28;20053;-87
2022/12/17 21:36:01;;;;;;;25.02;12.38;;;;;;;;;;5053239;28;20050;-86
2022/12/17 21:38:34;;;;;;;25.90;11.88;;;;;;;;;;5052342;28;20139;-86
2022/12/17 21:41:05;;;;;;;22.33;9.90;;;;;;;;;;5053108;28;20077;-87
2022/12/17 21:43:32;;;;;;;21.17;10.02;;;;;;;;;;5052677;28;20137;-86
2022/12/17 21:46:00;;;;;;;19.77;9.30;;;;;;;;;;5052991;28;20080;-86
2022/12/17 21:48:27;;;;;;;17.45;8.95;;;;;;;;;;5051709;28;20053;-87
2022/12/17 21:50:54;;;;;;;19.30;10.10;;;;;;;;;;5052407;28;20053;-86
2022/12/17 21:53:22;;;;;;;21.33;9.80;;;;;;;;;;5052662;28;20128;-86
2022/12/17 21:55:49;;;;;;;21.17;10.77;;;;;;;;;;5052433;28;20057;-86
2022/12/17 21:58:18;;;;;;;16.33;9.43;;;;;;;;;;5052600;28;20057;-86
2022/12/17 22:00:45;;;;;;;14.98;8.27;;;;;;;;;;5052709;28;20136;-86
2022/12/17 22:03:12;;;;;;;19.00;9.13;;;;;;;;;;5052716;28;20140;-87
2022/12/17 22:05:39;;;;;;;16.52;9.32;;;;;;;;;;5053141;28;20051;-86
2022/12/17 22:08:06;;;;;;;16.02;9.88;;;;;;;;;;5053778;28;20484;-86
2022/12/17 22:10:34;;;;;;;22.92;10.52;;;;;;;;;;5068805;28;20057;-86
2022/12/17 22:16:05;;;;;;;20.08;9.55;;;;;;;;;;5037224;28;20054;-86
2022/12/17 22:18:32;;;;;;;14.25;8.10;;;;;;;;;;5052444;28;20054;-86
2022/12/17 22:21:01;;;;;;;18.10;9.00;;;;;;;;;;5051919;28;20052;-86
2022/12/17 22:23:28;;;;;;;15.90;7.93;;;;;;;;;;5051982;28;20482;-86
2022/12/17 22:25:56;;;;;;;17.25;8.00;;;;;;;;;;5052638;28;20046;-87
2022/12/17 22:28:23;;;;;;;15.23;8.07;;;;;;;;;;5052125;28;20057;-87
2022/12/17 22:33:38;;;;;;;14.70;6.90;;;;;;;;;;5036564;28;20057;-86
2022/12/17 22:36:27;;;;;;;15.60;8.10;;;;;;;;;;5066155;28;20536;-86
2022/12/17 22:39:15;;;;;;;17.15;8.10;;;;;;;;;;5049962;28;20061;-86
2022/12/17 22:45:08;;;;;;;13.35;7.28;;;;;;;;;;5036157;28;20049;-87
2022/12/17 22:47:38;;;;;;;12.75;7.15;;;;;;;;;;5051105;28;20049;-86
2022/12/17 22:50:05;;;;;;;14.25;8.15;;;;;;;;;;5051386;28;20057;-87
2022/12/17 22:52:33;;;;;;;16.17;8.43;;;;;;;;;;5051500;28;20056;-86
2022/12/17 22:55:01;;;;;;;14.40;7.47;;;;;;;;;;5051505;28;20140;-86
2022/12/17 22:57:29;;;;;;;14.27;7.95;;;;;;;;;;5051386;28;20199;-86
2022/12/17 23:00:05;;;;;;;18.17;8.40;;;;;;;;;;5050876;28;20049;-86
2022/12/17 23:02:32;;;;;;;24.08;9.20;;;;;;;;;;5051449;28;20071;-86
2022/12/17 23:05:00;;;;;;;23.20;9.32;;;;;;;;;;5051286;28;20461;-86
2022/12/17 23:07:27;;;;;;;19.52;9.52;;;;;;;;;;5051596;28;20059;-86
2022/12/17 23:09:58;;;;;;;14.63;8.75;;;;;;;;;;5050747;28;20053;-86
2022/12/17 23:15:11;;;;;;;18.55;8.95;;;;;;;;;;5035752;28;20053;-87
2022/12/17 23:17:38;;;;;;;18.20;8.85;;;;;;;;;;5051125;28;20049;-86
2022/12/17 23:20:06;;;;;;;20.88;8.93;;;;;;;;;;5051093;28;20072;-87
2022/12/17 23:22:33;;;;;;;19.02;8.93;;;;;;;;;;5051019;28;20060;-86
2022/12/17 23:25:01;;;;;;;18.95;9.63;;;;;;;;;;5050463;28;20052;-86
2022/12/17 23:27:28;;;;;;;20.63;9.52;;;;;;;;;;5050697;28;20053;-86
2022/12/17 23:29:55;;;;;;;19.83;8.85;;;;;;;;;;5051018;28;20413;-87
2022/12/17 23:32:22;;;;;;;16.15;8.43;;;;;;;;;;5050973;28;20536;-87
2022/12/17 23:34:50;;;;;;;20.92;8.05;;;;;;;;;;5050755;28;20049;-86
2022/12/17 23:37:17;;;;;;;25.10;9.25;;;;;;;;;;5050735;28;20508;-87
2022/12/17 23:39:44;;;;;;;16.83;8.60;;;;;;;;;;5050535;28;20053;-87
2022/12/17 23:42:11;;;;;;;15.57;8.15;;;;;;;;;;5050658;28;20057;-86
2022/12/17 23:44:39;;;;;;;18.65;8.57;;;;;;;;;;5049815;28;20049;-87
2022/12/17 23:47:06;;;;;;;17.75;7.68;;;;;;;;;;5049962;28;20093;-86
2022/12/17 23:49:33;;;;;;;16.65;8.35;;;;;;;;;;5066142;28;20105;-87
2022/12/17 23:52:00;;;;;;;18.63;8.85;;;;;;;;;;5054200;28;20402;-85
2022/12/17 23:54:27;;;;;;;20.00;8.13;;;;;;;;;;5050088;28;20057;-87
2022/12/17 23:56:55;;;;;;;15.85;7.35;;;;;;;;;;5050254;28;20068;-86
2022/12/17 23:59:22;;;;;;;17.92;7.05;;;;;;;;;;5050258;28;20053;-87
